sensor_id;sensor_type;location;lat;lon;timestamp;P1;durP1;ratioP1;P2;durP2;ratioP2
65658;SDS011;60181;53.258;6.932;2022-11-18T00:02:18;13.50;;;9.20;;
65658;SDS011;60181;53.258;6.932;2022-11-18T00:06:46;13.80;;;9.40;;
65658;SDS011;60181;53.258;6.932;2022-11-18T00:11:15;13.80;;;9.40;;
65658;SDS011;60181;53.258;6.932;2022-11-18T00:15:42;13.80;;;9.40;;
65658;SDS011;60181;53.258;6.932;2022-11-18T00:20:10;14.20;;;9.30;;
65658;SDS011;60181;53.258;6.932;2022-11-18T00:24:38;14.20;;;9.30;;
65658;SDS011;60181;53.258;6.932;2022-11-18T00:29:08;13.50;;;9.30;;
65658;SDS011;60181;53.258;6.932;2022-11-18T00:33:34;13.50;;;9.30;;
65658;SDS011;60181;53.258;6.932;2022-11-18T00:38:02;15.80;;;9.30;;
65658;SDS011;60181;53.258;6.932;2022-11-18T00:42:30;15.80;;;9.30;;
65658;SDS011;60181;53.258;6.932;2022-11-18T00:46:58;15.50;;;9.70;;
65658;SDS011;60181;53.258;6.932;2022-11-18T00:51:26;15.50;;;9.70;;
65658;SDS011;60181;53.258;6.932;2022-11-18T00:55:54;16.20;;;9.70;;
65658;SDS011;60181;53.258;6.932;2022-11-18T01:00:22;16.20;;;9.70;;
65658;SDS011;60181;53.258;6.932;2022-11-18T01:04:50;16.20;;;9.70;;
65658;SDS011;60181;53.258;6.932;2022-11-18T01:09:18;17.30;;;9.80;;
65658;SDS011;60181;53.258;6.932;2022-11-18T01:13:49;17.30;;;9.80;;
65658;SDS011;60181;53.258;6.932;2022-11-18T01:18:15;16.80;;;9.60;;
65658;SDS011;60181;53.258;6.932;2022-11-18T01:22:42;16.80;;;9.60;;
65658;SDS011;60181;53.258;6.932;2022-11-18T01:27:10;17.20;;;9.80;;
65658;SDS011;60181;53.258;6.932;2022-11-18T01:31:38;17.20;;;9.80;;
65658;SDS011;60181;53.258;6.932;2022-11-18T01:36:22;15.80;;;9.10;;
65658;SDS011;60181;53.258;6.932;2022-11-18T01:40:34;15.80;;;9.10;;
65658;SDS011;60181;53.258;6.932;2022-11-18T01:45:04;15.80;;;9.10;;
65658;SDS011;60181;53.258;6.932;2022-11-18T01:49:30;15.90;;;8.90;;
65658;SDS011;60181;53.258;6.932;2022-11-18T01:54:00;15.90;;;8.90;;
65658;SDS011;60181;53.258;6.932;2022-11-18T01:58:28;17.50;;;8.90;;
65658;SDS011;60181;53.258;6.932;2022-11-18T02:02:54;17.50;;;8.90;;
65658;SDS011;60181;53.258;6.932;2022-11-18T02:07:22;16.90;;;8.80;;
65658;SDS011;60181;53.258;6.932;2022-11-18T02:11:50;16.90;;;8.80;;
65658;SDS011;60181;53.258;6.932;2022-11-18T02:16:19;16.80;;;8.60;;
65658;SDS011;60181;53.258;6.932;2022-11-18T02:20:46;16.80;;;8.60;;
65658;SDS011;60181;53.258;6.932;2022-11-18T02:38:42;17.20;;;8.70;;
65658;SDS011;60181;53.258;6.932;2022-11-18T02:43:07;17.20;;;8.70;;
65658;SDS011;60181;53.258;6.932;2022-11-18T02:47:34;16.20;;;8.50;;
65658;SDS011;60181;53.258;6.932;2022-11-18T02:52:02;16.20;;;8.50;;
65658;SDS011;60181;53.258;6.932;2022-11-18T02:56:31;24.80;;;8.70;;
65658;SDS011;60181;53.258;6.932;2022-11-18T03:00:59;24.80;;;8.70;;
65658;SDS011;60181;53.258;6.932;2022-11-18T03:05:29;24.80;;;8.70;;
65658;SDS011;60181;53.258;6.932;2022-11-18T03:09:54;18.80;;;8.10;;
65658;SDS011;60181;53.258;6.932;2022-11-18T03:14:27;18.80;;;8.10;;
65658;SDS011;60181;53.258;6.932;2022-11-18T03:23:29;17.40;;;9.00;;
65658;SDS011;60181;53.258;6.932;2022-11-18T03:27:54;18.20;;;8.30;;
65658;SDS011;60181;53.258;6.932;2022-11-18T03:32:18;18.20;;;8.30;;
65658;SDS011;60181;53.258;6.932;2022-11-18T03:36:44;16.70;;;8.30;;
65658;SDS011;60181;53.258;6.932;2022-11-18T03:41:10;16.70;;;8.30;;
65658;SDS011;60181;53.258;6.932;2022-11-18T03:45:42;16.70;;;8.30;;
65658;SDS011;60181;53.258;6.932;2022-11-18T03:50:15;14.80;;;8.00;;
65658;SDS011;60181;53.258;6.932;2022-11-18T03:54:34;14.80;;;8.00;;
65658;SDS011;60181;53.258;6.932;2022-11-18T03:59:05;16.10;;;7.90;;
65658;SDS011;60181;53.258;6.932;2022-11-18T04:03:30;16.10;;;7.90;;
65658;SDS011;60181;53.258;6.932;2022-11-18T04:07:58;16.50;;;8.10;;
65658;SDS011;60181;53.258;6.932;2022-11-18T04:12:26;16.50;;;8.10;;
65658;SDS011;60181;53.258;6.932;2022-11-18T04:16:54;14.60;;;7.90;;
65658;SDS011;60181;53.258;6.932;2022-11-18T04:21:22;14.60;;;7.90;;
65658;SDS011;60181;53.258;6.932;2022-11-18T04:25:50;14.60;;;7.90;;
65658;SDS011;60181;53.258;6.932;2022-11-18T04:30:18;19.20;;;7.90;;
65658;SDS011;60181;53.258;6.932;2022-11-18T04:34:46;19.20;;;7.90;;
65658;SDS011;60181;53.258;6.932;2022-11-18T04:39:14;16.40;;;7.10;;
65658;SDS011;60181;53.258;6.932;2022-11-18T04:43:42;16.40;;;7.10;;
65658;SDS011;60181;53.258;6.932;2022-11-18T04:48:10;16.80;;;7.20;;
65658;SDS011;60181;53.258;6.932;2022-11-18T04:52:38;16.80;;;7.20;;
65658;SDS011;60181;53.258;6.932;2022-11-18T04:57:06;17.10;;;7.40;;
65658;SDS011;60181;53.258;6.932;2022-11-18T05:01:34;17.10;;;7.40;;
65658;SDS011;60181;53.258;6.932;2022-11-18T05:06:02;18.20;;;8.00;;
65658;SDS011;60181;53.258;6.932;2022-11-18T05:10:30;18.20;;;8.00;;
65658;SDS011;60181;53.258;6.932;2022-11-18T05:14:58;18.20;;;8.00;;
65658;SDS011;60181;53.258;6.932;2022-11-18T05:19:26;16.40;;;7.70;;
65658;SDS011;60181;53.258;6.932;2022-11-18T05:23:54;16.40;;;7.70;;
65658;SDS011;60181;53.258;6.932;2022-11-18T05:28:22;19.30;;;8.10;;
65658;SDS011;60181;53.258;6.932;2022-11-18T05:32:50;19.30;;;8.10;;
65658;SDS011;60181;53.258;6.932;2022-11-18T05:37:18;20.20;;;8.40;;
65658;SDS011;60181;53.258;6.932;2022-11-18T05:41:46;20.20;;;8.40;;
65658;SDS011;60181;53.258;6.932;2022-11-18T05:46:14;18.60;;;8.30;;
65658;SDS011;60181;53.258;6.932;2022-11-18T05:50:44;18.60;;;8.30;;
65658;SDS011;60181;53.258;6.932;2022-11-18T05:55:10;18.60;;;8.30;;
65658;SDS011;60181;53.258;6.932;2022-11-18T05:59:38;21.60;;;8.10;;
65658;SDS011;60181;53.258;6.932;2022-11-18T06:04:22;21.60;;;8.10;;
65658;SDS011;60181;53.258;6.932;2022-11-18T06:08:35;33.10;;;9.20;;
65658;SDS011;60181;53.258;6.932;2022-11-18T06:13:03;33.10;;;9.20;;
65658;SDS011;60181;53.258;6.932;2022-11-18T06:17:31;19.80;;;8.90;;
65658;SDS011;60181;53.258;6.932;2022-11-18T06:21:58;19.80;;;8.90;;
65658;SDS011;60181;53.258;6.932;2022-11-18T06:26:26;22.20;;;8.80;;
65658;SDS011;60181;53.258;6.932;2022-11-18T06:30:54;22.20;;;8.80;;
65658;SDS011;60181;53.258;6.932;2022-11-18T06:35:22;22.20;;;8.80;;
65658;SDS011;60181;53.258;6.932;2022-11-18T06:39:50;34.80;;;8.80;;
65658;SDS011;60181;53.258;6.932;2022-11-18T06:44:18;34.80;;;8.80;;
65658;SDS011;60181;53.258;6.932;2022-11-18T06:48:46;31.00;;;7.50;;
65658;SDS011;60181;53.258;6.932;2022-11-18T06:53:14;31.00;;;7.50;;
65658;SDS011;60181;53.258;6.932;2022-11-18T06:57:42;22.30;;;6.90;;
65658;SDS011;60181;53.258;6.932;2022-11-18T07:02:10;22.30;;;6.90;;
65658;SDS011;60181;53.258;6.932;2022-11-18T07:06:38;18.60;;;7.00;;
65658;SDS011;60181;53.258;6.932;2022-11-18T07:11:07;18.60;;;7.00;;
65658;SDS011;60181;53.258;6.932;2022-11-18T07:15:34;18.60;;;7.00;;
65658;SDS011;60181;53.258;6.932;2022-11-18T07:20:02;15.90;;;6.20;;
65658;SDS011;60181;53.258;6.932;2022-11-18T07:24:30;15.90;;;6.20;;
65658;SDS011;60181;53.258;6.932;2022-11-18T07:28:58;14.10;;;6.10;;
65658;SDS011;60181;53.258;6.932;2022-11-18T07:33:26;14.10;;;6.10;;
65658;SDS011;60181;53.258;6.932;2022-11-18T07:37:54;15.20;;;5.60;;
65658;SDS011;60181;53.258;6.932;2022-11-18T07:42:22;15.20;;;5.60;;
65658;SDS011;60181;53.258;6.932;2022-11-18T07:46:50;7.90;;;4.10;;
65658;SDS011;60181;53.258;6.932;2022-11-18T07:51:19;7.90;;;4.10;;
65658;SDS011;60181;53.258;6.932;2022-11-18T07:55:46;7.90;;;4.10;;
65658;SDS011;60181;53.258;6.932;2022-11-18T08:00:14;10.80;;;4.20;;
65658;SDS011;60181;53.258;6.932;2022-11-18T08:04:42;10.80;;;4.20;;
65658;SDS011;60181;53.258;6.932;2022-11-18T08:09:10;10.50;;;4.50;;
65658;SDS011;60181;53.258;6.932;2022-11-18T08:13:38;10.50;;;4.50;;
65658;SDS011;60181;53.258;6.932;2022-11-18T08:18:06;8.80;;;4.10;;
65658;SDS011;60181;53.258;6.932;2022-11-18T08:22:34;8.80;;;4.10;;
65658;SDS011;60181;53.258;6.932;2022-11-18T08:27:02;9.10;;;4.00;;
65658;SDS011;60181;53.258;6.932;2022-11-18T08:31:30;9.10;;;4.00;;
65658;SDS011;60181;53.258;6.932;2022-11-18T08:35:58;7.70;;;4.00;;
65658;SDS011;60181;53.258;6.932;2022-11-18T08:40:26;7.70;;;4.00;;
65658;SDS011;60181;53.258;6.932;2022-11-18T08:44:54;7.70;;;4.00;;
65658;SDS011;60181;53.258;6.932;2022-11-18T08:49:22;7.60;;;4.00;;
65658;SDS011;60181;53.258;6.932;2022-11-18T08:53:50;7.60;;;4.00;;
65658;SDS011;60181;53.258;6.932;2022-11-18T08:58:18;8.80;;;3.70;;
65658;SDS011;60181;53.258;6.932;2022-11-18T09:02:46;8.80;;;3.70;;
65658;SDS011;60181;53.258;6.932;2022-11-18T09:07:14;6.90;;;3.90;;
65658;SDS011;60181;53.258;6.932;2022-11-18T09:11:42;6.90;;;3.90;;
65658;SDS011;60181;53.258;6.932;2022-11-18T09:16:10;8.10;;;4.00;;
65658;SDS011;60181;53.258;6.932;2022-11-18T09:20:38;8.10;;;4.00;;
65658;SDS011;60181;53.258;6.932;2022-11-18T09:25:06;8.10;;;4.00;;
65658;SDS011;60181;53.258;6.932;2022-11-18T09:29:34;6.20;;;3.80;;
65658;SDS011;60181;53.258;6.932;2022-11-18T09:34:01;6.20;;;3.80;;
65658;SDS011;60181;53.258;6.932;2022-11-18T09:38:30;7.10;;;4.10;;
65658;SDS011;60181;53.258;6.932;2022-11-18T09:43:03;7.10;;;4.10;;
65658;SDS011;60181;53.258;6.932;2022-11-18T09:47:26;7.70;;;3.80;;
65658;SDS011;60181;53.258;6.932;2022-11-18T09:51:53;7.70;;;3.80;;
65658;SDS011;60181;53.258;6.932;2022-11-18T09:56:21;7.00;;;3.70;;
65658;SDS011;60181;53.258;6.932;2022-11-18T10:00:49;7.00;;;3.70;;
65658;SDS011;60181;53.258;6.932;2022-11-18T10:05:19;7.00;;;3.70;;
65658;SDS011;60181;53.258;6.932;2022-11-18T10:09:45;8.20;;;4.00;;
65658;SDS011;60181;53.258;6.932;2022-11-18T10:23:22;8.70;;;4.10;;
65658;SDS011;60181;53.258;6.932;2022-11-18T10:27:41;7.70;;;4.10;;
65658;SDS011;60181;53.258;6.932;2022-11-18T10:32:07;7.70;;;4.10;;
65658;SDS011;60181;53.258;6.932;2022-11-18T10:36:33;8.10;;;4.10;;
65658;SDS011;60181;53.258;6.932;2022-11-18T10:41:03;8.10;;;4.10;;
65658;SDS011;60181;53.258;6.932;2022-11-18T10:45:30;8.10;;;4.10;;
65658;SDS011;60181;53.258;6.932;2022-11-18T10:49:58;7.90;;;4.50;;
65658;SDS011;60181;53.258;6.932;2022-11-18T10:54:25;7.90;;;4.50;;
65658;SDS011;60181;53.258;6.932;2022-11-18T10:58:53;8.20;;;4.10;;
65658;SDS011;60181;53.258;6.932;2022-11-18T11:03:23;8.20;;;4.10;;
65658;SDS011;60181;53.258;6.932;2022-11-18T11:08:02;7.90;;;4.20;;
65658;SDS011;60181;53.258;6.932;2022-11-18T11:12:17;7.90;;;4.20;;
65658;SDS011;60181;53.258;6.932;2022-11-18T11:16:48;9.20;;;4.20;;
65658;SDS011;60181;53.258;6.932;2022-11-18T11:21:14;9.20;;;4.20;;
65658;SDS011;60181;53.258;6.932;2022-11-18T11:25:52;9.20;;;4.20;;
65658;SDS011;60181;53.258;6.932;2022-11-18T11:43:37;8.10;;;4.40;;
65658;SDS011;60181;53.258;6.932;2022-11-18T11:52:39;7.90;;;4.60;;
65658;SDS011;60181;53.258;6.932;2022-11-18T12:05:53;7.90;;;4.40;;
65658;SDS011;60181;53.258;6.932;2022-11-18T12:10:44;7.90;;;4.40;;
65658;SDS011;60181;53.258;6.932;2022-11-18T12:14:49;7.90;;;4.40;;
65658;SDS011;60181;53.258;6.932;2022-11-18T12:19:23;8.50;;;4.80;;
65658;SDS011;60181;53.258;6.932;2022-11-18T12:23:48;8.50;;;4.80;;
65658;SDS011;60181;53.258;6.932;2022-11-18T12:28:32;7.80;;;4.50;;
65658;SDS011;60181;53.258;6.932;2022-11-18T12:32:44;7.80;;;4.50;;
65658;SDS011;60181;53.258;6.932;2022-11-18T12:46:05;10.30;;;4.70;;
65658;SDS011;60181;53.258;6.932;2022-11-18T12:55:02;10.30;;;4.70;;
65658;SDS011;60181;53.258;6.932;2022-11-18T12:59:30;10.20;;;5.00;;
65658;SDS011;60181;53.258;6.932;2022-11-18T13:08:25;19.00;;;8.20;;
65658;SDS011;60181;53.258;6.932;2022-11-18T13:12:53;19.00;;;8.20;;
65658;SDS011;60181;53.258;6.932;2022-11-18T13:21:53;19.40;;;9.60;;
65658;SDS011;60181;53.258;6.932;2022-11-18T13:26:19;24.50;;;11.50;;
65658;SDS011;60181;53.258;6.932;2022-11-18T13:35:17;24.50;;;11.50;;
65658;SDS011;60181;53.258;6.932;2022-11-18T13:39:53;28.40;;;13.10;;
65658;SDS011;60181;53.258;6.932;2022-11-18T13:44:26;28.40;;;13.10;;
65658;SDS011;60181;53.258;6.932;2022-11-18T13:48:38;28.40;;;14.00;;
65658;SDS011;60181;53.258;6.932;2022-11-18T13:57:33;33.70;;;14.90;;
65658;SDS011;60181;53.258;6.932;2022-11-18T14:02:01;33.70;;;14.90;;
65658;SDS011;60181;53.258;6.932;2022-11-18T14:06:38;33.90;;;16.00;;
65658;SDS011;60181;53.258;6.932;2022-11-18T14:10:57;33.90;;;16.00;;
65658;SDS011;60181;53.258;6.932;2022-11-18T14:15:33;33.90;;;16.00;;
65658;SDS011;60181;53.258;6.932;2022-11-18T14:19:54;32.70;;;15.40;;
65658;SDS011;60181;53.258;6.932;2022-11-18T14:24:27;32.70;;;15.40;;
65658;SDS011;60181;53.258;6.932;2022-11-18T14:28:53;35.30;;;16.30;;
65658;SDS011;60181;53.258;6.932;2022-11-18T14:33:21;35.30;;;16.30;;
65658;SDS011;60181;53.258;6.932;2022-11-18T14:37:45;34.00;;;16.40;;
65658;SDS011;60181;53.258;6.932;2022-11-18T14:42:13;34.00;;;16.40;;
65658;SDS011;60181;53.258;6.932;2022-11-18T14:46:42;33.10;;;16.40;;
65658;SDS011;60181;53.258;6.932;2022-11-18T14:51:12;33.10;;;16.40;;
65658;SDS011;60181;53.258;6.932;2022-11-18T14:55:37;33.10;;;16.40;;
65658;SDS011;60181;53.258;6.932;2022-11-18T15:00:05;35.30;;;17.40;;
65658;SDS011;60181;53.258;6.932;2022-11-18T15:09:01;33.30;;;16.70;;
65658;SDS011;60181;53.258;6.932;2022-11-18T15:13:38;33.30;;;16.70;;
65658;SDS011;60181;53.258;6.932;2022-11-18T15:17:57;36.40;;;16.40;;
65658;SDS011;60181;53.258;6.932;2022-11-18T15:22:25;36.40;;;16.40;;
65658;SDS011;60181;53.258;6.932;2022-11-18T15:26:53;39.60;;;17.10;;
65658;SDS011;60181;53.258;6.932;2022-11-18T15:31:21;39.60;;;17.10;;
65658;SDS011;60181;53.258;6.932;2022-11-18T15:35:49;39.60;;;17.10;;
65658;SDS011;60181;53.258;6.932;2022-11-18T15:40:17;35.00;;;16.20;;
65658;SDS011;60181;53.258;6.932;2022-11-18T15:44:45;35.00;;;16.20;;
65658;SDS011;60181;53.258;6.932;2022-11-18T15:49:13;32.80;;;15.60;;
65658;SDS011;60181;53.258;6.932;2022-11-18T15:53:44;32.80;;;15.60;;
65658;SDS011;60181;53.258;6.932;2022-11-18T15:58:17;36.90;;;16.40;;
65658;SDS011;60181;53.258;6.932;2022-11-18T16:02:45;36.90;;;16.40;;
65658;SDS011;60181;53.258;6.932;2022-11-18T16:07:05;31.80;;;15.40;;
65658;SDS011;60181;53.258;6.932;2022-11-18T16:11:33;31.80;;;15.40;;
65658;SDS011;60181;53.258;6.932;2022-11-18T16:16:03;30.50;;;14.30;;
65658;SDS011;60181;53.258;6.932;2022-11-18T16:20:29;30.50;;;14.30;;
65658;SDS011;60181;53.258;6.932;2022-11-18T16:24:57;30.50;;;14.30;;
65658;SDS011;60181;53.258;6.932;2022-11-18T16:29:25;30.60;;;14.90;;
65658;SDS011;60181;53.258;6.932;2022-11-18T16:33:53;30.60;;;14.90;;
65658;SDS011;60181;53.258;6.932;2022-11-18T16:38:21;35.40;;;15.10;;
65658;SDS011;60181;53.258;6.932;2022-11-18T16:42:50;35.40;;;15.10;;
65658;SDS011;60181;53.258;6.932;2022-11-18T16:47:17;26.90;;;13.60;;
65658;SDS011;60181;53.258;6.932;2022-11-18T16:51:45;26.90;;;13.60;;
65658;SDS011;60181;53.258;6.932;2022-11-18T16:56:13;29.70;;;14.00;;
65658;SDS011;60181;53.258;6.932;2022-11-18T17:00:41;29.70;;;14.00;;
65658;SDS011;60181;53.258;6.932;2022-11-18T17:05:09;29.70;;;14.00;;
65658;SDS011;60181;53.258;6.932;2022-11-18T17:09:37;27.40;;;13.10;;
65658;SDS011;60181;53.258;6.932;2022-11-18T17:14:05;27.40;;;13.10;;
65658;SDS011;60181;53.258;6.932;2022-11-18T17:18:36;29.00;;;13.50;;
65658;SDS011;60181;53.258;6.932;2022-11-18T17:23:04;29.00;;;13.50;;
65658;SDS011;60181;53.258;6.932;2022-11-18T17:27:29;25.00;;;12.80;;
65658;SDS011;60181;53.258;6.932;2022-11-18T17:31:59;25.00;;;12.80;;
65658;SDS011;60181;53.258;6.932;2022-11-18T17:36:25;27.40;;;12.80;;
65658;SDS011;60181;53.258;6.932;2022-11-18T17:40:56;27.40;;;12.80;;
65658;SDS011;60181;53.258;6.932;2022-11-18T17:45:21;27.40;;;12.80;;
65658;SDS011;60181;53.258;6.932;2022-11-18T17:49:49;23.50;;;12.20;;
65658;SDS011;60181;53.258;6.932;2022-11-18T17:54:19;23.50;;;12.20;;
65658;SDS011;60181;53.258;6.932;2022-11-18T17:58:45;27.20;;;12.60;;
65658;SDS011;60181;53.258;6.932;2022-11-18T18:03:13;27.20;;;12.60;;
65658;SDS011;60181;53.258;6.932;2022-11-18T18:07:46;23.40;;;11.80;;
65658;SDS011;60181;53.258;6.932;2022-11-18T18:12:09;23.40;;;11.80;;
65658;SDS011;60181;53.258;6.932;2022-11-18T18:16:40;23.20;;;11.40;;
65658;SDS011;60181;53.258;6.932;2022-11-18T18:21:05;23.20;;;11.40;;
65658;SDS011;60181;53.258;6.932;2022-11-18T18:25:33;23.20;;;11.40;;
65658;SDS011;60181;53.258;6.932;2022-11-18T18:30:01;21.60;;;11.20;;
65658;SDS011;60181;53.258;6.932;2022-11-18T18:34:29;21.60;;;11.20;;
65658;SDS011;60181;53.258;6.932;2022-11-18T18:38:57;21.20;;;11.30;;
65658;SDS011;60181;53.258;6.932;2022-11-18T18:43:25;21.20;;;11.30;;
65658;SDS011;60181;53.258;6.932;2022-11-18T18:47:53;21.80;;;10.90;;
65658;SDS011;60181;53.258;6.932;2022-11-18T18:52:21;21.80;;;10.90;;
65658;SDS011;60181;53.258;6.932;2022-11-18T18:56:49;22.00;;;10.50;;
65658;SDS011;60181;53.258;6.932;2022-11-18T19:01:17;22.00;;;10.50;;
65658;SDS011;60181;53.258;6.932;2022-11-18T19:05:45;22.00;;;10.50;;
65658;SDS011;60181;53.258;6.932;2022-11-18T19:10:13;20.60;;;10.40;;
65658;SDS011;60181;53.258;6.932;2022-11-18T19:14:41;20.60;;;10.40;;
65658;SDS011;60181;53.258;6.932;2022-11-18T19:19:10;18.20;;;10.20;;
65658;SDS011;60181;53.258;6.932;2022-11-18T19:23:37;18.20;;;10.20;;
65658;SDS011;60181;53.258;6.932;2022-11-18T19:28:05;19.30;;;9.20;;
65658;SDS011;60181;53.258;6.932;2022-11-18T19:32:36;19.30;;;9.20;;
65658;SDS011;60181;53.258;6.932;2022-11-18T19:37:01;17.00;;;9.10;;
65658;SDS011;60181;53.258;6.932;2022-11-18T19:41:29;17.00;;;9.10;;
65658;SDS011;60181;53.258;6.932;2022-11-18T19:45:57;15.60;;;9.00;;
65658;SDS011;60181;53.258;6.932;2022-11-18T19:50:25;15.60;;;9.00;;
65658;SDS011;60181;53.258;6.932;2022-11-18T19:54:53;15.60;;;9.00;;
65658;SDS011;60181;53.258;6.932;2022-11-18T19:59:21;15.90;;;8.80;;
65658;SDS011;60181;53.258;6.932;2022-11-18T20:03:49;15.90;;;8.80;;
65658;SDS011;60181;53.258;6.932;2022-11-18T20:08:25;14.70;;;8.30;;
65658;SDS011;60181;53.258;6.932;2022-11-18T20:12:45;14.70;;;8.30;;
65658;SDS011;60181;53.258;6.932;2022-11-18T20:17:13;16.30;;;8.30;;
65658;SDS011;60181;53.258;6.932;2022-11-18T20:21:41;16.30;;;8.30;;
65658;SDS011;60181;53.258;6.932;2022-11-18T20:26:09;13.80;;;7.50;;
65658;SDS011;60181;53.258;6.932;2022-11-18T20:30:37;13.80;;;7.50;;
65658;SDS011;60181;53.258;6.932;2022-11-18T20:35:05;13.80;;;7.50;;
65658;SDS011;60181;53.258;6.932;2022-11-18T20:39:33;13.70;;;7.50;;
65658;SDS011;60181;53.258;6.932;2022-11-18T20:44:01;13.70;;;7.50;;
65658;SDS011;60181;53.258;6.932;2022-11-18T20:48:28;12.40;;;7.60;;
65658;SDS011;60181;53.258;6.932;2022-11-18T20:52:56;12.40;;;7.60;;
65658;SDS011;60181;53.258;6.932;2022-11-18T20:57:25;12.70;;;7.30;;
65658;SDS011;60181;53.258;6.932;2022-11-18T21:01:52;12.70;;;7.30;;
65658;SDS011;60181;53.258;6.932;2022-11-18T21:06:21;11.20;;;6.70;;
65658;SDS011;60181;53.258;6.932;2022-11-18T21:10:48;11.20;;;6.70;;
65658;SDS011;60181;53.258;6.932;2022-11-18T21:15:16;11.20;;;6.70;;
65658;SDS011;60181;53.258;6.932;2022-11-18T21:19:44;12.70;;;6.50;;
65658;SDS011;60181;53.258;6.932;2022-11-18T21:28:40;11.60;;;6.60;;
65658;SDS011;60181;53.258;6.932;2022-11-18T21:33:08;11.60;;;6.60;;
65658;SDS011;60181;53.258;6.932;2022-11-18T21:37:36;11.10;;;6.50;;
65658;SDS011;60181;53.258;6.932;2022-11-18T21:42:04;11.10;;;6.50;;
65658;SDS011;60181;53.258;6.932;2022-11-18T21:46:39;10.60;;;6.30;;
65658;SDS011;60181;53.258;6.932;2022-11-18T21:51:01;10.60;;;6.30;;
65658;SDS011;60181;53.258;6.932;2022-11-18T21:55:28;10.60;;;6.30;;
65658;SDS011;60181;53.258;6.932;2022-11-18T22:00:02;10.50;;;5.70;;
65658;SDS011;60181;53.258;6.932;2022-11-18T22:04:24;10.50;;;5.70;;
65658;SDS011;60181;53.258;6.932;2022-11-18T22:08:52;10.10;;;5.80;;
65658;SDS011;60181;53.258;6.932;2022-11-18T22:13:20;10.10;;;5.80;;
65658;SDS011;60181;53.258;6.932;2022-11-18T22:17:48;9.50;;;5.70;;
65658;SDS011;60181;53.258;6.932;2022-11-18T22:22:16;9.50;;;5.70;;
65658;SDS011;60181;53.258;6.932;2022-11-18T22:26:44;18.10;;;5.80;;
65658;SDS011;60181;53.258;6.932;2022-11-18T22:31:13;18.10;;;5.80;;
65658;SDS011;60181;53.258;6.932;2022-11-18T22:35:40;18.10;;;5.80;;
65658;SDS011;60181;53.258;6.932;2022-11-18T22:40:09;9.80;;;4.60;;
65658;SDS011;60181;53.258;6.932;2022-11-18T22:44:36;9.80;;;4.60;;
65658;SDS011;60181;53.258;6.932;2022-11-18T22:49:05;10.40;;;4.80;;
65658;SDS011;60181;53.258;6.932;2022-11-18T22:53:32;10.40;;;4.80;;
65658;SDS011;60181;53.258;6.932;2022-11-18T22:58:01;9.20;;;4.60;;
65658;SDS011;60181;53.258;6.932;2022-11-18T23:02:28;9.20;;;4.60;;
65658;SDS011;60181;53.258;6.932;2022-11-18T23:06:56;9.40;;;4.40;;
65658;SDS011;60181;53.258;6.932;2022-11-18T23:11:24;9.40;;;4.40;;
65658;SDS011;60181;53.258;6.932;2022-11-18T23:15:55;9.80;;;4.30;;
65658;SDS011;60181;53.258;6.932;2022-11-18T23:20:20;9.80;;;4.30;;
65658;SDS011;60181;53.258;6.932;2022-11-18T23:24:48;9.80;;;4.30;;
65658;SDS011;60181;53.258;6.932;2022-11-18T23:33:44;7.90;;;3.90;;
65658;SDS011;60181;53.258;6.932;2022-11-18T23:38:18;6.90;;;4.10;;
65658;SDS011;60181;53.258;6.932;2022-11-18T23:42:40;6.90;;;4.10;;
65658;SDS011;60181;53.258;6.932;2022-11-18T23:47:08;6.60;;;4.20;;
65658;SDS011;60181;53.258;6.932;2022-11-18T23:51:36;6.60;;;4.20;;
65658;SDS011;60181;53.258;6.932;2022-11-18T23:56:06;6.70;;;4.20;;
